الصفحة الرئيسية
METAR-TAF:

METAR-TAF

مطار :

واينر نوستادت, النمسا

دائرة عرض: 47-50-36N, خط طول: 016-15-29E, ارتفاع: 272 متر

مراقبة الطقس الحالي

تاريخ ووقت الإصدار 45 دقيقة قبل الساعة 13:00UTC
ريح 4 عقدة من الجنوب
درجة الحرارة
ضغط
الرؤية 10 كم أو أكثر
غيوم قليلة على ارتفاع 4000 قدم

METAR: LOAN 201300Z 17004KT 9999 FEW040 ///// Q////

زمن: 15:45 (13:45 UTC)

توقعات

تاريخ ووقت الإصدار 2ساعات و 30 دقيقة قبل الساعة 11:15UTC
التوقعات صالحة من20 الساعة 12 UTC إلى 20 الساعة 21 UTC
ريح 7 عقدة من الجنوب/الجنوب الغربي
الرؤية 10 كم أو أكثر
غيوم قليلة على ارتفاع 6000 قدم
نظرية الاحتمالات 30% :
مؤقت
من 20 الساعة 12 UTC إلى 20 الساعة 14 UTC
الرؤية: 4000 متر
مطر,

TAF: LOAN 201115Z 2012/2021 20007KT 9999 FEW060 PROB30 TEMPO 2012/2014 4000 RA

أرصاد الطقس والتوقعات من أكثر من 4000 مطار (تقارير الطقس للمطار METAR والتنبؤ بالطقس بالمطارTAF).

المحطات المتاحة هي النقط الصفراء والحمراء على الخريطة.

حرك المؤشر فوق النقطة لمعرفة اسم المحطة.

ثم انقر لمعرفة أرصاد وتوقعات الطقس.

لتغيير الخارطة: اضغط على الأزرار الخضراء مع رمز الصليب الأسود للتكبير. على الزر الأخضر مع شرطة للتصغير، أو على الأسهم الخضراء للخرائط المجاورة.


METAR-TAF: